sensor_id;sensor_type;location;lat;lon;timestamp;pressure;altitude;pressure_sealevel;temperature;humidity
14089;BME280;7120;52.890;6.040;2023-04-01T00:00:27;99043.72;;;10.84;100.00
14089;BME280;7120;52.890;6.040;2023-04-01T00:02:52;99029.03;;;10.77;100.00
14089;BME280;7120;52.890;6.040;2023-04-01T00:05:18;99040.44;;;10.79;100.00
14089;BME280;7120;52.890;6.040;2023-04-01T00:07:43;99037.06;;;10.97;100.00
14089;BME280;7120;52.890;6.040;2023-04-01T00:10:10;99031.84;;;10.92;100.00
14089;BME280;7120;52.890;6.040;2023-04-01T00:12:37;99037.06;;;10.97;100.00
14089;BME280;7120;52.890;6.040;2023-04-01T00:15:07;99036.50;;;10.92;100.00
14089;BME280;7120;52.890;6.040;2023-04-01T00:17:33;99040.16;;;10.96;100.00
14089;BME280;7120;52.890;6.040;2023-04-01T00:19:59;99026.16;;;10.85;100.00
14089;BME280;7120;52.890;6.040;2023-04-01T00:22:26;99024.56;;;10.84;100.00
14089;BME280;7120;52.890;6.040;2023-04-01T00:24:52;99034.38;;;10.85;100.00
14089;BME280;7120;52.890;6.040;2023-04-01T00:27:18;99030.84;;;10.85;100.00
14089;BME280;7120;52.890;6.040;2023-04-01T00:29:45;99037.16;;;10.73;100.00
14089;BME280;7120;52.890;6.040;2023-04-01T00:32:12;99039.50;;;10.87;100.00
14089;BME280;7120;52.890;6.040;2023-04-01T00:34:37;99043.19;;;10.79;100.00
14089;BME280;7120;52.890;6.040;2023-04-01T00:37:03;99037.38;;;10.80;100.00
14089;BME280;7120;52.890;6.040;2023-04-01T00:39:30;99040.09;;;10.80;100.00
14089;BME280;7120;52.890;6.040;2023-04-01T00:41:56;99025.84;;;10.87;100.00
14089;BME280;7120;52.890;6.040;2023-04-01T00:46:48;99035.28;;;10.89;100.00
14089;BME280;7120;52.890;6.040;2023-04-01T00:49:16;99027.38;;;11.00;100.00
14089;BME280;7120;52.890;6.040;2023-04-01T00:51:45;99027.47;;;10.76;100.00
14089;BME280;7120;52.890;6.040;2023-04-01T00:54:14;99036.09;;;11.06;100.00
14089;BME280;7120;52.890;6.040;2023-04-01T00:56:45;99030.91;;;11.00;100.00
14089;BME280;7120;52.890;6.040;2023-04-01T00:59:22;99037.75;;;10.94;100.00
14089;BME280;7120;52.890;6.040;2023-04-01T01:01:49;99030.03;;;11.12;100.00
14089;BME280;7120;52.890;6.040;2023-04-01T01:04:25;99027.09;;;11.05;100.00
14089;BME280;7120;52.890;6.040;2023-04-01T01:17:34;99037.25;;;11.05;100.00
14089;BME280;7120;52.890;6.040;2023-04-01T01:21:04;99041.25;;;11.07;100.00
14089;BME280;7120;52.890;6.040;2023-04-01T01:23:43;99047.13;;;10.93;100.00
14089;BME280;7120;52.890;6.040;2023-04-01T01:31:50;99050.44;;;11.15;100.00
14089;BME280;7120;52.890;6.040;2023-04-01T01:37:16;99041.06;;;11.00;100.00
14089;BME280;7120;52.890;6.040;2023-04-01T01:39:44;99047.34;;;11.16;100.00
14089;BME280;7120;52.890;6.040;2023-04-01T01:42:14;99049.97;;;11.13;100.00
14089;BME280;7120;52.890;6.040;2023-04-01T01:44:43;99059.34;;;11.27;100.00
14089;BME280;7120;52.890;6.040;2023-04-01T01:47:11;99049.44;;;11.07;100.00
14089;BME280;7120;52.890;6.040;2023-04-01T01:49:37;99062.19;;;11.15;100.00
14089;BME280;7120;52.890;6.040;2023-04-01T01:52:04;99055.19;;;11.18;100.00
14089;BME280;7120;52.890;6.040;2023-04-01T01:54:30;99054.00;;;11.31;100.00
14089;BME280;7120;52.890;6.040;2023-04-01T01:57:06;99056.56;;;11.40;100.00
14089;BME280;7120;52.890;6.040;2023-04-01T01:59:33;99059.94;;;11.49;100.00
14089;BME280;7120;52.890;6.040;2023-04-01T02:02:01;99063.00;;;11.47;100.00
14089;BME280;7120;52.890;6.040;2023-04-01T02:04:34;99060.09;;;11.40;100.00
14089;BME280;7120;52.890;6.040;2023-04-01T02:07:07;99068.09;;;11.33;100.00
14089;BME280;7120;52.890;6.040;2023-04-01T02:09:34;99069.25;;;11.32;100.00
14089;BME280;7120;52.890;6.040;2023-04-01T02:12:06;99067.44;;;11.36;100.00
14089;BME280;7120;52.890;6.040;2023-04-01T02:15:08;99070.38;;;11.15;100.00
14089;BME280;7120;52.890;6.040;2023-04-01T02:17:34;99081.22;;;11.12;100.00
14089;BME280;7120;52.890;6.040;2023-04-01T02:20:16;99081.91;;;11.09;100.00
14089;BME280;7120;52.890;6.040;2023-04-01T02:22:51;99071.72;;;10.93;100.00
14089;BME280;7120;52.890;6.040;2023-04-01T02:25:22;99077.03;;;11.02;100.00
14089;BME280;7120;52.890;6.040;2023-04-01T02:27:49;99074.56;;;10.97;100.00
14089;BME280;7120;52.890;6.040;2023-04-01T02:30:15;99084.25;;;10.94;100.00
14089;BME280;7120;52.890;6.040;2023-04-01T02:32:42;99092.81;;;10.93;100.00
14089;BME280;7120;52.890;6.040;2023-04-01T02:35:10;99085.59;;;10.72;100.00
14089;BME280;7120;52.890;6.040;2023-04-01T02:37:37;99098.31;;;10.81;100.00
14089;BME280;7120;52.890;6.040;2023-04-01T02:40:05;99093.53;;;10.78;100.00
14089;BME280;7120;52.890;6.040;2023-04-01T02:42:35;99099.56;;;10.71;100.00
14089;BME280;7120;52.890;6.040;2023-04-01T02:45:00;99099.56;;;10.83;100.00
14089;BME280;7120;52.890;6.040;2023-04-01T02:47:26;99097.03;;;10.90;100.00
14089;BME280;7120;52.890;6.040;2023-04-01T02:49:51;99108.66;;;10.87;100.00
14089;BME280;7120;52.890;6.040;2023-04-01T02:52:23;99104.84;;;10.64;100.00
14089;BME280;7120;52.890;6.040;2023-04-01T02:54:48;99109.72;;;10.70;100.00
14089;BME280;7120;52.890;6.040;2023-04-01T02:57:14;99109.28;;;10.68;100.00
14089;BME280;7120;52.890;6.040;2023-04-01T02:59:39;99114.75;;;10.68;100.00
14089;BME280;7120;52.890;6.040;2023-04-01T03:02:05;99110.56;;;10.59;100.00
14089;BME280;7120;52.890;6.040;2023-04-01T03:04:30;99107.03;;;10.46;100.00
14089;BME280;7120;52.890;6.040;2023-04-01T03:06:55;99122.19;;;10.43;100.00
14089;BME280;7120;52.890;6.040;2023-04-01T03:09:21;99124.00;;;10.39;100.00
14089;BME280;7120;52.890;6.040;2023-04-01T03:11:46;99123.22;;;10.39;100.00
14089;BME280;7120;52.890;6.040;2023-04-01T03:14:12;99126.75;;;10.39;100.00
14089;BME280;7120;52.890;6.040;2023-04-01T03:16:37;99125.94;;;10.27;100.00
14089;BME280;7120;52.890;6.040;2023-04-01T03:19:02;99134.22;;;10.18;100.00
14089;BME280;7120;52.890;6.040;2023-04-01T03:21:28;99145.28;;;10.09;100.00
14089;BME280;7120;52.890;6.040;2023-04-01T03:23:53;99147.19;;;10.21;100.00
14089;BME280;7120;52.890;6.040;2023-04-01T03:26:18;99152.03;;;10.24;100.00
14089;BME280;7120;52.890;6.040;2023-04-01T03:28:44;99164.09;;;10.23;100.00
14089;BME280;7120;52.890;6.040;2023-04-01T03:31:10;99163.06;;;10.28;100.00
14089;BME280;7120;52.890;6.040;2023-04-01T03:33:36;99168.06;;;10.26;100.00
14089;BME280;7120;52.890;6.040;2023-04-01T03:36:01;99153.00;;;10.19;100.00
14089;BME280;7120;52.890;6.040;2023-04-01T03:38:28;99158.63;;;10.23;100.00
14089;BME280;7120;52.890;6.040;2023-04-01T03:40:53;99162.00;;;10.20;100.00
14089;BME280;7120;52.890;6.040;2023-04-01T03:43:19;99160.06;;;10.08;100.00
14089;BME280;7120;52.890;6.040;2023-04-01T03:45:49;99163.16;;;10.19;100.00
14089;BME280;7120;52.890;6.040;2023-04-01T03:48:15;99165.44;;;10.17;100.00
14089;BME280;7120;52.890;6.040;2023-04-01T03:50:40;99166.03;;;10.23;100.00
14089;BME280;7120;52.890;6.040;2023-04-01T03:53:06;99168.59;;;10.19;100.00
14089;BME280;7120;52.890;6.040;2023-04-01T03:55:32;99175.06;;;10.14;100.00
14089;BME280;7120;52.890;6.040;2023-04-01T03:57:57;99165.63;;;10.12;100.00
14089;BME280;7120;52.890;6.040;2023-04-01T04:00:23;99188.28;;;10.12;100.00
14089;BME280;7120;52.890;6.040;2023-04-01T04:02:48;99187.84;;;10.10;100.00
14089;BME280;7120;52.890;6.040;2023-04-01T04:05:14;99185.56;;;10.12;100.00
14089;BME280;7120;52.890;6.040;2023-04-01T04:07:39;99179.88;;;10.17;100.00
14089;BME280;7120;52.890;6.040;2023-04-01T04:10:05;99193.53;;;10.17;100.00
14089;BME280;7120;52.890;6.040;2023-04-01T04:12:31;99192.53;;;10.22;100.00
14089;BME280;7120;52.890;6.040;2023-04-01T04:14:56;99196.94;;;10.14;100.00
14089;BME280;7120;52.890;6.040;2023-04-01T04:17:22;99196.25;;;10.05;100.00
14089;BME280;7120;52.890;6.040;2023-04-01T04:19:47;99189.78;;;10.10;100.00
14089;BME280;7120;52.890;6.040;2023-04-01T04:22:12;99199.09;;;10.09;100.00
14089;BME280;7120;52.890;6.040;2023-04-01T04:24:38;99199.66;;;10.02;100.00
14089;BME280;7120;52.890;6.040;2023-04-01T04:27:04;99204.81;;;10.16;100.00
14089;BME280;7120;52.890;6.040;2023-04-01T04:29:29;99207.53;;;10.16;100.00
14089;BME280;7120;52.890;6.040;2023-04-01T04:31:55;99214.69;;;10.21;100.00
14089;BME280;7120;52.890;6.040;2023-04-01T04:34:21;99212.88;;;10.12;100.00
14089;BME280;7120;52.890;6.040;2023-04-01T04:36:47;99221.13;;;10.25;100.00
14089;BME280;7120;52.890;6.040;2023-04-01T04:39:13;99216.28;;;10.22;100.00
14089;BME280;7120;52.890;6.040;2023-04-01T04:41:39;99228.81;;;10.10;100.00
14089;BME280;7120;52.890;6.040;2023-04-01T04:44:04;99233.19;;;10.24;100.00
14089;BME280;7120;52.890;6.040;2023-04-01T04:46:30;99237.97;;;10.27;100.00
14089;BME280;7120;52.890;6.040;2023-04-01T04:48:56;99228.59;;;10.15;100.00
14089;BME280;7120;52.890;6.040;2023-04-01T04:51:22;99242.56;;;10.14;100.00
14089;BME280;7120;52.890;6.040;2023-04-01T04:53:48;99243.47;;;10.06;100.00
14089;BME280;7120;52.890;6.040;2023-04-01T04:56:21;99244.50;;;10.13;100.00
14089;BME280;7120;52.890;6.040;2023-04-01T04:58:47;99251.56;;;10.02;100.00
14089;BME280;7120;52.890;6.040;2023-04-01T05:01:14;99253.00;;;10.00;100.00
14089;BME280;7120;52.890;6.040;2023-04-01T05:03:41;99256.22;;;10.02;100.00
14089;BME280;7120;52.890;6.040;2023-04-01T05:06:08;99259.19;;;10.09;100.00
14089;BME280;7120;52.890;6.040;2023-04-01T05:08:34;99264.88;;;10.04;100.00
14089;BME280;7120;52.890;6.040;2023-04-01T05:11:00;99266.25;;;10.10;100.00
14089;BME280;7120;52.890;6.040;2023-04-01T05:13:27;99259.25;;;10.00;100.00
14089;BME280;7120;52.890;6.040;2023-04-01T05:15:52;99265.13;;;10.11;100.00
14089;BME280;7120;52.890;6.040;2023-04-01T05:18:17;99270.56;;;10.11;100.00
14089;BME280;7120;52.890;6.040;2023-04-01T05:20:50;99277.19;;;10.10;100.00
14089;BME280;7120;52.890;6.040;2023-04-01T05:23:16;99285.22;;;10.06;100.00
14089;BME280;7120;52.890;6.040;2023-04-01T05:25:42;99288.09;;;10.10;100.00
14089;BME280;7120;52.890;6.040;2023-04-01T05:28:08;99285.47;;;10.13;100.00
14089;BME280;7120;52.890;6.040;2023-04-01T05:30:33;99289.81;;;10.14;100.00
14089;BME280;7120;52.890;6.040;2023-04-01T05:32:58;99291.19;;;10.08;100.00
14089;BME280;7120;52.890;6.040;2023-04-01T05:35:24;99298.25;;;10.09;100.00
14089;BME280;7120;52.890;6.040;2023-04-01T05:37:49;99295.63;;;10.13;100.00
14089;BME280;7120;52.890;6.040;2023-04-01T05:40:15;99313.28;;;10.15;100.00
14089;BME280;7120;52.890;6.040;2023-04-01T05:42:41;99307.81;;;10.15;100.00
14089;BME280;7120;52.890;6.040;2023-04-01T05:45:07;99312.81;;;10.13;100.00
14089;BME280;7120;52.890;6.040;2023-04-01T05:47:33;99314.53;;;10.18;100.00
14089;BME280;7120;52.890;6.040;2023-04-01T05:49:59;99318.19;;;10.22;100.00
14089;BME280;7120;52.890;6.040;2023-04-01T05:52:24;99322.00;;;10.30;100.00
14089;BME280;7120;52.890;6.040;2023-04-01T05:54:49;99328.47;;;10.25;100.00
14089;BME280;7120;52.890;6.040;2023-04-01T05:57:15;99330.31;;;10.33;100.00
14089;BME280;7120;52.890;6.040;2023-04-01T05:59:40;99332.16;;;10.41;100.00
14089;BME280;7120;52.890;6.040;2023-04-01T06:02:06;99329.53;;;10.33;100.00
14089;BME280;7120;52.890;6.040;2023-04-01T06:04:38;99331.47;;;10.32;100.00
14089;BME280;7120;52.890;6.040;2023-04-01T06:07:15;99334.44;;;10.39;100.00
14089;BME280;7120;52.890;6.040;2023-04-01T06:09:41;99342.09;;;10.46;100.00
14089;BME280;7120;52.890;6.040;2023-04-01T06:12:16;99343.09;;;10.41;100.00
14089;BME280;7120;52.890;6.040;2023-04-01T06:14:54;99352.81;;;10.51;100.00
14089;BME280;7120;52.890;6.040;2023-04-01T06:25:38;99363.16;;;10.45;100.00
14089;BME280;7120;52.890;6.040;2023-04-01T06:31:05;99367.38;;;10.43;100.00
14089;BME280;7120;52.890;6.040;2023-04-01T06:36:46;99376.72;;;10.54;100.00
14089;BME280;7120;52.890;6.040;2023-04-01T06:45:46;99399.28;;;10.51;100.00
14089;BME280;7120;52.890;6.040;2023-04-01T06:51:31;99409.31;;;10.59;100.00
14089;BME280;7120;52.890;6.040;2023-04-01T06:54:20;99405.75;;;10.47;100.00
14089;BME280;7120;52.890;6.040;2023-04-01T06:56:49;99410.75;;;10.44;100.00
14089;BME280;7120;52.890;6.040;2023-04-01T06:59:21;99411.09;;;10.43;100.00
14089;BME280;7120;52.890;6.040;2023-04-01T07:01:50;99423.88;;;10.51;100.00
14089;BME280;7120;52.890;6.040;2023-04-01T07:04:26;99419.75;;;10.45;100.00
14089;BME280;7120;52.890;6.040;2023-04-01T07:09:31;99426.47;;;10.48;100.00
14089;BME280;7120;52.890;6.040;2023-04-01T07:12:00;99437.75;;;10.46;100.00
14089;BME280;7120;52.890;6.040;2023-04-01T07:14:35;99437.59;;;10.42;100.00
14089;BME280;7120;52.890;6.040;2023-04-01T07:17:09;99446.69;;;10.34;100.00
14089;BME280;7120;52.890;6.040;2023-04-01T07:19:41;99452.75;;;10.40;100.00
14089;BME280;7120;52.890;6.040;2023-04-01T07:22:27;99450.16;;;10.43;100.00
14089;BME280;7120;52.890;6.040;2023-04-01T07:24:54;99461.88;;;10.44;100.00
14089;BME280;7120;52.890;6.040;2023-04-01T07:27:19;99469.59;;;10.42;100.00
14089;BME280;7120;52.890;6.040;2023-04-01T07:29:45;99468.50;;;10.43;100.00
14089;BME280;7120;52.890;6.040;2023-04-01T07:32:38;99471.94;;;10.52;100.00
14089;BME280;7120;52.890;6.040;2023-04-01T07:40:45;99481.88;;;10.36;100.00
14089;BME280;7120;52.890;6.040;2023-04-01T07:46:19;99487.06;;;10.50;100.00
14089;BME280;7120;52.890;6.040;2023-04-01T07:48:58;99495.41;;;10.53;100.00
14089;BME280;7120;52.890;6.040;2023-04-01T07:51:38;99480.06;;;10.40;100.00
14089;BME280;7120;52.890;6.040;2023-04-01T07:54:22;99501.28;;;10.43;100.00
14089;BME280;7120;52.890;6.040;2023-04-01T07:57:00;99498.47;;;10.52;100.00
14089;BME280;7120;52.890;6.040;2023-04-01T08:13:24;99533.59;;;10.83;100.00
14089;BME280;7120;52.890;6.040;2023-04-01T08:19:14;99554.03;;;10.64;100.00
14089;BME280;7120;52.890;6.040;2023-04-01T08:21:51;99548.28;;;10.57;100.00
14089;BME280;7120;52.890;6.040;2023-04-01T08:24:28;99557.56;;;10.65;100.00
14089;BME280;7120;52.890;6.040;2023-04-01T08:26:58;99550.16;;;10.65;100.00
14089;BME280;7120;52.890;6.040;2023-04-01T08:29:34;99559.75;;;10.71;100.00
14089;BME280;7120;52.890;6.040;2023-04-01T08:32:11;99565.00;;;10.77;100.00
14089;BME280;7120;52.890;6.040;2023-04-01T08:34:40;99566.22;;;10.67;100.00
14089;BME280;7120;52.890;6.040;2023-04-01T08:39:55;99567.72;;;10.77;100.00
14089;BME280;7120;52.890;6.040;2023-04-01T08:57:20;99618.16;;;10.88;100.00
14089;BME280;7120;52.890;6.040;2023-04-01T09:03:14;99616.34;;;10.71;100.00
14089;BME280;7120;52.890;6.040;2023-04-01T09:06:06;99617.50;;;10.91;100.00
14089;BME280;7120;52.890;6.040;2023-04-01T09:23:33;99631.22;;;10.61;100.00
14089;BME280;7120;52.890;6.040;2023-04-01T09:26:32;99637.13;;;10.72;100.00
14089;BME280;7120;52.890;6.040;2023-04-01T09:29:23;99650.19;;;10.66;100.00
14089;BME280;7120;52.890;6.040;2023-04-01T09:38:23;99673.34;;;10.90;100.00
14089;BME280;7120;52.890;6.040;2023-04-01T09:40:57;99664.59;;;10.76;100.00
14089;BME280;7120;52.890;6.040;2023-04-01T09:49:13;99678.81;;;11.11;100.00
14089;BME280;7120;52.890;6.040;2023-04-01T09:51:57;99673.22;;;11.07;100.00
14089;BME280;7120;52.890;6.040;2023-04-01T09:54:32;99668.66;;;11.11;100.00
14089;BME280;7120;52.890;6.040;2023-04-01T10:20:06;99709.94;;;11.60;100.00
14089;BME280;7120;52.890;6.040;2023-04-01T10:36:47;99726.69;;;12.13;100.00
14089;BME280;7120;52.890;6.040;2023-04-01T10:43:04;99724.44;;;12.27;100.00
14089;BME280;7120;52.890;6.040;2023-04-01T10:51:16;99745.97;;;11.29;100.00
14089;BME280;7120;52.890;6.040;2023-04-01T11:05:22;99754.63;;;11.10;100.00
14089;BME280;7120;52.890;6.040;2023-04-01T11:11:03;99768.22;;;10.98;100.00
14089;BME280;7120;52.890;6.040;2023-04-01T11:14:15;99775.22;;;10.78;100.00
14089;BME280;7120;52.890;6.040;2023-04-01T11:19:57;99799.50;;;10.88;100.00
14089;BME280;7120;52.890;6.040;2023-04-01T11:22:51;99798.88;;;11.12;100.00
14089;BME280;7120;52.890;6.040;2023-04-01T11:39:39;99826.63;;;11.02;100.00
14089;BME280;7120;52.890;6.040;2023-04-01T12:01:16;99864.16;;;10.46;100.00
14089;BME280;7120;52.890;6.040;2023-04-01T12:18:04;99898.13;;;10.83;100.00
14089;BME280;7120;52.890;6.040;2023-04-01T12:20:50;99892.34;;;10.85;100.00
14089;BME280;7120;52.890;6.040;2023-04-01T12:23:28;99909.75;;;10.80;100.00
14089;BME280;7120;52.890;6.040;2023-04-01T12:26:10;99911.66;;;10.88;100.00
14089;BME280;7120;52.890;6.040;2023-04-01T12:28:59;99918.78;;;10.72;100.00
14089;BME280;7120;52.890;6.040;2023-04-01T12:37:29;99938.41;;;10.57;100.00
14089;BME280;7120;52.890;6.040;2023-04-01T12:45:30;99951.59;;;10.72;100.00
14089;BME280;7120;52.890;6.040;2023-04-01T12:48:10;99955.75;;;10.78;100.00
14089;BME280;7120;52.890;6.040;2023-04-01T12:55:50;99971.22;;;10.57;100.00
14089;BME280;7120;52.890;6.040;2023-04-01T13:20:14;99998.53;;;10.83;100.00
14089;BME280;7120;52.890;6.040;2023-04-01T13:22:57;100005.28;;;10.85;100.00
14089;BME280;7120;52.890;6.040;2023-04-01T13:25:47;100000.63;;;10.94;100.00
14089;BME280;7120;52.890;6.040;2023-04-01T13:28:21;100010.44;;;10.78;100.00
14089;BME280;7120;52.890;6.040;2023-04-01T13:31:22;100012.84;;;10.88;100.00
14089;BME280;7120;52.890;6.040;2023-04-01T13:34:00;100019.94;;;10.55;100.00
14089;BME280;7120;52.890;6.040;2023-04-01T13:42:08;100046.16;;;10.47;100.00
14089;BME280;7120;52.890;6.040;2023-04-01T13:44:41;100041.50;;;10.56;100.00
14089;BME280;7120;52.890;6.040;2023-04-01T13:58:28;100067.41;;;10.50;100.00
14089;BME280;7120;52.890;6.040;2023-04-01T14:01:15;100068.22;;;10.59;100.00
14089;BME280;7120;52.890;6.040;2023-04-01T14:03:54;100077.72;;;10.79;100.00
14089;BME280;7120;52.890;6.040;2023-04-01T14:06:31;100080.09;;;10.55;100.00
14089;BME280;7120;52.890;6.040;2023-04-01T14:14:27;100105.38;;;10.12;100.00
14089;BME280;7120;52.890;6.040;2023-04-01T14:25:33;100118.31;;;9.58;100.00
14089;BME280;7120;52.890;6.040;2023-04-01T14:28:28;100132.16;;;9.61;100.00
14089;BME280;7120;52.890;6.040;2023-04-01T14:39:34;100153.19;;;9.61;100.00
14089;BME280;7120;52.890;6.040;2023-04-01T14:42:48;100158.50;;;9.35;100.00
14089;BME280;7120;52.890;6.040;2023-04-01T14:50:51;100170.94;;;9.27;100.00
14089;BME280;7120;52.890;6.040;2023-04-01T14:53:30;100177.03;;;9.24;100.00
14089;BME280;7120;52.890;6.040;2023-04-01T14:55:58;100184.41;;;9.24;100.00
14089;BME280;7120;52.890;6.040;2023-04-01T14:58:39;100190.38;;;9.26;100.00
14089;BME280;7120;52.890;6.040;2023-04-01T15:04:42;100195.59;;;9.58;100.00
14089;BME280;7120;52.890;6.040;2023-04-01T15:10:09;100212.25;;;9.34;100.00
14089;BME280;7120;52.890;6.040;2023-04-01T15:18:33;100235.16;;;9.25;100.00
14089;BME280;7120;52.890;6.040;2023-04-01T15:26:20;100241.81;;;9.19;100.00
14089;BME280;7120;52.890;6.040;2023-04-01T15:31:50;100255.38;;;9.24;100.00
14089;BME280;7120;52.890;6.040;2023-04-01T15:34:41;100251.75;;;9.37;100.00
14089;BME280;7120;52.890;6.040;2023-04-01T15:45:39;100285.75;;;9.31;100.00
14089;BME280;7120;52.890;6.040;2023-04-01T15:51:28;100298.31;;;9.04;100.00
14089;BME280;7120;52.890;6.040;2023-04-01T16:04:46;100326.00;;;8.98;100.00
14089;BME280;7120;52.890;6.040;2023-04-01T16:08:14;100329.16;;;8.91;100.00
14089;BME280;7120;52.890;6.040;2023-04-01T16:15:57;100347.34;;;8.96;100.00
14089;BME280;7120;52.890;6.040;2023-04-01T16:21:14;100376.78;;;8.80;100.00
14089;BME280;7120;52.890;6.040;2023-04-01T16:23:56;100373.47;;;8.69;100.00
14089;BME280;7120;52.890;6.040;2023-04-01T16:32:43;100390.53;;;8.75;100.00
14089;BME280;7120;52.890;6.040;2023-04-01T16:35:22;100393.66;;;8.68;100.00
14089;BME280;7120;52.890;6.040;2023-04-01T16:40:58;100410.06;;;8.49;100.00
14089;BME280;7120;52.890;6.040;2023-04-01T16:54:28;100436.00;;;8.47;100.00
14089;BME280;7120;52.890;6.040;2023-04-01T16:56:56;100444.56;;;8.40;100.00
14089;BME280;7120;52.890;6.040;2023-04-01T16:59:37;100451.09;;;8.20;100.00
14089;BME280;7120;52.890;6.040;2023-04-01T17:07:22;100474.94;;;8.10;100.00
14089;BME280;7120;52.890;6.040;2023-04-01T17:13:18;100480.75;;;8.03;100.00
14089;BME280;7120;52.890;6.040;2023-04-01T17:19:09;100489.31;;;7.96;100.00
14089;BME280;7120;52.890;6.040;2023-04-01T17:22:04;100508.53;;;7.81;100.00
14089;BME280;7120;52.890;6.040;2023-04-01T17:24:56;100511.09;;;7.72;100.00
14089;BME280;7120;52.890;6.040;2023-04-01T17:28:04;100520.25;;;7.82;100.00
14089;BME280;7120;52.890;6.040;2023-04-01T17:30:35;100519.88;;;7.88;100.00
14089;BME280;7120;52.890;6.040;2023-04-01T17:33:16;100538.28;;;7.78;100.00
14089;BME280;7120;52.890;6.040;2023-04-01T17:41:25;100552.84;;;7.87;100.00
14089;BME280;7120;52.890;6.040;2023-04-01T17:46:37;100575.63;;;7.72;100.00
14089;BME280;7120;52.890;6.040;2023-04-01T17:54:52;100583.16;;;7.56;100.00
14089;BME280;7120;52.890;6.040;2023-04-01T17:57:32;100596.09;;;7.40;100.00
14089;BME280;7120;52.890;6.040;2023-04-01T18:05:48;100609.41;;;7.42;100.00
14089;BME280;7120;52.890;6.040;2023-04-01T18:17:08;100646.81;;;7.26;100.00
14089;BME280;7120;52.890;6.040;2023-04-01T18:22:29;100661.94;;;7.03;100.00
14089;BME280;7120;52.890;6.040;2023-04-01T18:25:40;100667.75;;;6.92;100.00
14089;BME280;7120;52.890;6.040;2023-04-01T18:33:41;100695.44;;;6.94;100.00
14089;BME280;7120;52.890;6.040;2023-04-01T18:36:15;100693.28;;;6.91;100.00
14089;BME280;7120;52.890;6.040;2023-04-01T18:39:04;100703.94;;;6.82;100.00
14089;BME280;7120;52.890;6.040;2023-04-01T18:44:30;100719.44;;;6.81;100.00
14089;BME280;7120;52.890;6.040;2023-04-01T18:52:44;100742.06;;;6.67;100.00
14089;BME280;7120;52.890;6.040;2023-04-01T18:55:32;100746.41;;;6.68;100.00
14089;BME280;7120;52.890;6.040;2023-04-01T19:01:19;100760.50;;;6.75;100.00
14089;BME280;7120;52.890;6.040;2023-04-01T19:06:50;100775.69;;;6.86;100.00
14089;BME280;7120;52.890;6.040;2023-04-01T19:09:32;100778.41;;;6.86;100.00
14089;BME280;7120;52.890;6.040;2023-04-01T19:20:14;100809.94;;;6.82;100.00
14089;BME280;7120;52.890;6.040;2023-04-01T19:25:40;100821.31;;;6.89;100.00
14089;BME280;7120;52.890;6.040;2023-04-01T19:28:44;100829.47;;;6.99;100.00
14089;BME280;7120;52.890;6.040;2023-04-01T19:36:10;100835.28;;;6.62;100.00
14089;BME280;7120;52.890;6.040;2023-04-01T19:46:42;100859.72;;;6.77;100.00
14089;BME280;7120;52.890;6.040;2023-04-01T20:03:15;100901.81;;;6.75;100.00
14089;BME280;7120;52.890;6.040;2023-04-01T20:09:04;100902.66;;;6.70;100.00
14089;BME280;7120;52.890;6.040;2023-04-01T20:11:59;100918.16;;;6.54;100.00
14089;BME280;7120;52.890;6.040;2023-04-01T20:14:43;100924.41;;;6.55;100.00
14089;BME280;7120;52.890;6.040;2023-04-01T20:17:19;100928.75;;;6.66;100.00
14089;BME280;7120;52.890;6.040;2023-04-01T20:19:59;100940.16;;;6.68;100.00
14089;BME280;7120;52.890;6.040;2023-04-01T20:25:24;100944.25;;;6.55;100.00
14089;BME280;7120;52.890;6.040;2023-04-01T20:36:16;100970.06;;;6.53;100.00
14089;BME280;7120;52.890;6.040;2023-04-01T20:41:26;100987.16;;;6.33;100.00
14089;BME280;7120;52.890;6.040;2023-04-01T20:44:06;100984.16;;;6.24;100.00
14089;BME280;7120;52.890;6.040;2023-04-01T20:46:56;100987.16;;;6.28;100.00
14089;BME280;7120;52.890;6.040;2023-04-01T20:52:02;101004.25;;;6.33;100.00
14089;BME280;7120;52.890;6.040;2023-04-01T21:00:19;101017.59;;;6.35;100.00
14089;BME280;7120;52.890;6.040;2023-04-01T21:15:29;101052.34;;;6.23;100.00
14089;BME280;7120;52.890;6.040;2023-04-01T21:26:33;101072.38;;;6.07;100.00
14089;BME280;7120;52.890;6.040;2023-04-01T21:29:33;101078.38;;;6.14;100.00
14089;BME280;7120;52.890;6.040;2023-04-01T22:13:32;101159.72;;;5.93;100.00
14089;BME280;7120;52.890;6.040;2023-04-01T22:16:20;101161.63;;;5.93;100.00
14089;BME280;7120;52.890;6.040;2023-04-01T22:19:20;101169.16;;;5.86;100.00
14089;BME280;7120;52.890;6.040;2023-04-01T22:21:58;101179.81;;;5.97;100.00
14089;BME280;7120;52.890;6.040;2023-04-01T22:24:58;101171.94;;;5.96;100.00
14089;BME280;7120;52.890;6.040;2023-04-01T22:27:34;101191.84;;;6.07;100.00
14089;BME280;7120;52.890;6.040;2023-04-01T22:36:06;101197.72;;;5.93;100.00
14089;BME280;7120;52.890;6.040;2023-04-01T22:39:14;101201.81;;;5.96;100.00
14089;BME280;7120;52.890;6.040;2023-04-01T22:49:50;101220.19;;;5.89;100.00
14089;BME280;7120;52.890;6.040;2023-04-01T22:55:05;101226.84;;;6.03;100.00
14089;BME280;7120;52.890;6.040;2023-04-01T22:57:56;101234.91;;;5.93;100.00
14089;BME280;7120;52.890;6.040;2023-04-01T23:00:32;101231.66;;;5.96;100.00
14089;BME280;7120;52.890;6.040;2023-04-01T23:03:51;101232.09;;;5.83;100.00
14089;BME280;7120;52.890;6.040;2023-04-01T23:06:17;101231.75;;;5.74;100.00
14089;BME280;7120;52.890;6.040;2023-04-01T23:11:42;101245.38;;;5.79;100.00
14089;BME280;7120;52.890;6.040;2023-04-01T23:22:46;101275.84;;;5.86;100.00
14089;BME280;7120;52.890;6.040;2023-04-01T23:25:17;101275.47;;;5.77;100.00
14089;BME280;7120;52.890;6.040;2023-04-01T23:27:56;101284.81;;;5.60;100.00
14089;BME280;7120;52.890;6.040;2023-04-01T23:33:21;101303.34;;;5.68;100.00
14089;BME280;7120;52.890;6.040;2023-04-01T23:35:55;101298.88;;;5.51;100.00
14089;BME280;7120;52.890;6.040;2023-04-01T23:38:24;101298.53;;;5.48;100.00
14089;BME280;7120;52.890;6.040;2023-04-01T23:40:52;101314.06;;;5.26;100.00